Time;durP1;ratioP1;P1;durP2;ratioP2;P2;SDS_P1;SDS_P2;PMS_P1;PMS_P2;Temp;Humidity;BMP_temperature;BMP_pressure;BME280_temperature;BME280_humidity;BME280_pressure;Samples;Min_cycle;Max_cycle;Signal;HPM_P1;HPM_P2
2021/09/27 00:01:58;;;;;;;2.55;2.35;;;20.10;77.40;;;;;;5093979;28;20044;-57
2021/09/27 00:04:24;;;;;;;3.25;2.67;;;20.10;77.40;;;;;;5093529;28;20059;-57
2021/09/27 00:06:50;;;;;;;2.35;2.15;;;20.10;77.40;;;;;;5093480;28;20377;-56
2021/09/27 00:09:15;;;;;;;2.55;2.35;;;20.10;77.40;;;;;;5091102;28;20052;-57
2021/09/27 00:11:41;;;;;;;2.88;2.58;;;20.20;77.40;;;;;;5093767;28;20123;-57
2021/09/27 00:14:07;;;;;;;3.05;2.75;;;20.10;77.40;;;;;;5093560;28;20424;-57
2021/09/27 00:16:33;;;;;;;2.97;2.72;;;20.10;77.40;;;;;;5093485;28;20047;-57
2021/09/27 00:19:00;;;;;;;2.67;2.45;;;20.10;77.40;;;;;;5092945;28;20129;-58
2021/09/27 00:21:29;;;;;;;2.60;2.38;;;20.10;77.50;;;;;;5093379;28;20410;-57
2021/09/27 00:23:56;;;;;;;3.10;2.80;;;20.10;77.40;;;;;;5092474;28;20236;-57
2021/09/27 00:26:23;;;;;;;2.83;2.47;;;20.10;77.40;;;;;;5093669;28;20089;-57
2021/09/27 00:28:49;;;;;;;2.70;2.50;;;20.20;77.80;;;;;;5092949;28;20044;-57
2021/09/27 00:31:16;;;;;;;2.92;2.63;;;20.10;77.40;;;;;;5093540;28;20401;-57
2021/09/27 00:33:42;;;;;;;2.92;2.63;;;20.10;77.40;;;;;;5092122;28;20048;-57
2021/09/27 00:36:08;;;;;;;2.53;2.33;;;20.10;77.40;;;;;;5093227;28;20555;-57
2021/09/27 00:38:34;;;;;;;2.50;2.30;;;20.10;77.40;;;;;;5092475;28;20131;-57
2021/09/27 00:41:03;;;;;;;2.83;2.53;;;20.10;77.40;;;;;;5092963;28;20048;-57
2021/09/27 00:43:31;;;;;;;2.53;2.30;;;20.20;77.40;;;;;;5092171;28;20089;-57
2021/09/27 00:45:59;;;;;;;2.70;2.50;;;20.10;77.40;;;;;;5093390;28;20043;-57
2021/09/27 00:48:27;;;;;;;2.30;2.10;;;20.10;77.40;;;;;;5092746;28;20032;-55
2021/09/27 00:51:01;;;;;;;2.80;2.60;;;20.10;77.40;;;;;;5091603;28;20056;-58
2021/09/27 00:53:29;;;;;;;3.00;2.67;;;20.10;77.40;;;;;;5092806;28;20361;-56
2021/09/27 00:55:57;;;;;;;2.80;2.60;;;20.10;77.40;;;;;;5092859;28;20435;-58
2021/09/27 00:58:25;;;;;;;2.42;2.22;;;20.10;77.40;;;;;;5092985;28;20117;-59
2021/09/27 01:00:52;;;;;;;2.70;2.50;;;20.10;77.50;;;;;;5092641;28;20058;-57
2021/09/27 01:03:18;;;;;;;2.45;2.25;;;20.10;77.40;;;;;;5092950;28;20043;-57
2021/09/27 01:05:54;;;;;;;2.97;2.70;;;20.10;77.40;;;;;;5092402;28;20051;-56
2021/09/27 01:08:48;;;;;;;2.78;2.58;;;20.10;77.40;;;;;;5092049;28;20052;-59
2021/09/27 01:12:00;;;;;;;2.42;2.22;;;20.10;77.50;;;;;;5091993;28;20043;-59
2021/09/27 01:14:31;;;;;;;2.65;2.45;;;20.10;77.70;;;;;;5033229;28;20144;-60
2021/09/27 01:17:13;;;;;;;2.65;2.45;;;20.10;77.50;;;;;;5031063;28;20054;-57
2021/09/27 01:19:56;;;;;;;3.13;2.75;;;20.10;77.50;;;;;;5049788;28;20056;-59
2021/09/27 01:22:30;;;;;;;2.72;2.20;;;20.10;77.40;;;;;;5049927;28;20053;-57
2021/09/27 01:25:11;;;;;;;2.50;2.30;;;20.10;77.50;;;;;;5049362;28;20049;-57
2021/09/27 01:27:59;;;;;;;2.15;1.95;;;20.10;77.50;;;;;;5049823;28;20048;-63
2021/09/27 01:30:52;;;;;;;2.70;2.50;;;20.10;77.60;;;;;;5033452;28;20037;-61
2021/09/27 01:33:27;;;;;;;2.30;2.10;;;20.10;77.60;;;;;;5049733;28;20136;-60
2021/09/27 01:36:17;;;;;;;2.90;2.53;;;20.10;77.50;;;;;;5049528;28;20053;-62
2021/09/27 01:39:01;;;;;;;2.50;2.30;;;20.10;77.60;;;;;;5049636;28;20052;-60
2021/09/27 01:41:50;;;;;;;2.50;2.30;;;20.10;77.50;;;;;;5049589;28;20413;-60
2021/09/27 01:44:31;;;;;;;2.40;2.20;;;20.10;77.60;;;;;;5049399;28;20140;-61
2021/09/27 01:47:01;;;;;;;2.65;2.40;;;20.10;77.60;;;;;;5046909;28;20049;-61
2021/09/27 01:50:00;;;;;;;2.42;2.22;;;20.10;77.50;;;;;;5084686;28;20076;-60
2021/09/27 01:52:37;;;;;;;2.70;2.50;;;20.10;77.60;;;;;;5092241;28;20134;-63
2021/09/27 01:55:15;;;;;;;2.60;2.40;;;20.10;77.50;;;;;;5093748;28;20094;-59
2021/09/27 01:58:02;;;;;;;2.80;2.50;;;20.10;77.50;;;;;;5096144;28;20084;-60
2021/09/27 02:00:34;;;;;;;2.72;2.35;;;20.10;77.50;;;;;;5095793;28;20039;-64
2021/09/27 02:03:18;;;;;;;2.65;2.45;;;20.10;77.50;;;;;;5096081;28;20082;-63
2021/09/27 02:06:10;;;;;;;2.53;2.33;;;20.10;77.60;;;;;;5096357;28;20055;-60
2021/09/27 02:08:52;;;;;;;2.42;2.22;;;20.10;77.60;;;;;;5095626;28;20092;-61
2021/09/27 02:11:28;;;;;;;2.70;2.50;;;20.10;77.50;;;;;;5095772;28;20051;-60
2021/09/27 02:14:23;;;;;;;2.60;2.30;;;20.10;77.60;;;;;;5095631;28;20059;-63
2021/09/27 02:16:51;;;;;;;2.72;2.38;;;20.10;77.60;;;;;;5095791;28;20454;-65
2021/09/27 02:19:32;;;;;;;2.65;2.35;;;20.10;77.50;;;;;;5095410;28;20127;-64
2021/09/27 02:22:30;;;;;;;2.50;2.30;;;20.10;77.60;;;;;;5095669;28;20059;-63
2021/09/27 02:25:05;;;;;;;2.60;2.30;;;20.10;78.30;;;;;;5094926;28;20122;-59
2021/09/27 02:27:31;;;;;;;2.20;2.00;;;20.10;77.50;;;;;;5095826;28;20040;-64
2021/09/27 02:29:57;;;;;;;2.67;2.47;;;20.10;77.50;;;;;;5095503;28;20109;-62
2021/09/27 02:32:29;;;;;;;3.17;2.88;;;20.10;77.50;;;;;;5095522;28;20044;-60
2021/09/27 02:35:08;;;;;;;2.40;2.20;;;20.10;77.50;;;;;;5095425;28;20036;-62
2021/09/27 02:37:42;;;;;;;2.88;2.58;;;20.10;77.50;;;;;;5095461;28;20127;-58
2021/09/27 02:40:31;;;;;;;2.63;2.42;;;20.10;77.50;;;;;;5078379;28;20103;-57
2021/09/27 02:43:01;;;;;;;2.40;2.20;;;20.10;77.60;;;;;;5095241;28;20484;-59
2021/09/27 02:45:29;;;;;;;3.15;2.40;;;20.10;77.50;;;;;;5095120;28;20120;-57
2021/09/27 02:48:19;;;;;;;2.58;2.38;;;20.10;77.50;;;;;;5095363;28;20047;-57
2021/09/27 02:50:50;;;;;;;2.60;2.40;;;20.10;77.50;;;;;;5095032;28;20475;-57
2021/09/27 02:53:17;;;;;;;2.78;2.50;;;20.10;77.50;;;;;;5093977;28;20483;-57
2021/09/27 02:55:55;;;;;;;2.72;2.45;;;20.10;77.50;;;;;;5095107;28;20455;-56
2021/09/27 02:58:29;;;;;;;2.55;2.35;;;20.10;77.50;;;;;;5095143;28;20036;-57
2021/09/27 03:01:25;;;;;;;3.17;2.88;;;20.10;77.50;;;;;;5095152;28;20040;-62
2021/09/27 03:04:39;;;;;;;2.58;2.38;;;20.10;77.50;;;;;;5094596;28;20048;-64
2021/09/27 03:07:08;;;;;;;2.45;2.25;;;20.10;77.70;;;;;;5094077;28;20040;-61
2021/09/27 03:10:01;;;;;;;2.60;2.40;;;20.10;77.50;;;;;;5094495;28;20580;-62
2021/09/27 03:12:33;;;;;;;2.58;2.38;;;20.10;77.50;;;;;;5094620;28;20040;-58
2021/09/27 03:15:16;;;;;;;2.72;2.30;;;20.00;77.40;;;;;;5094895;28;20047;-57
2021/09/27 03:18:03;;;;;;;2.60;2.40;;;20.10;77.50;;;;;;5093737;28;20044;-57
2021/09/27 03:20:48;;;;;;;3.45;2.80;;;20.10;77.60;;;;;;5093944;28;20044;-57
2021/09/27 03:23:23;;;;;;;2.65;2.38;;;20.10;77.50;;;;;;5092793;28;20044;-57
2021/09/27 03:26:29;;;;;;;2.40;2.20;;;20.00;77.40;;;;;;5094386;28;20048;-57
2021/09/27 03:29:19;;;;;;;2.53;2.33;;;20.10;77.60;;;;;;5094038;28;20101;-59
2021/09/27 03:31:56;;;;;;;2.58;2.38;;;20.00;77.50;;;;;;5093434;28;20056;-58
2021/09/27 03:34:21;;;;;;;2.50;2.30;;;20.10;77.60;;;;;;5093876;28;20047;-58
2021/09/27 03:36:56;;;;;;;2.50;2.30;;;20.00;77.50;;;;;;5093683;28;20115;-56
2021/09/27 03:39:37;;;;;;;;;;;20.00;77.50;;;;;;5094060;28;20036;-57
2021/09/27 03:42:21;;;;;;;2.50;2.30;;;20.00;77.90;;;;;;5094198;28;19920;-57
2021/09/27 03:44:50;;;;;;;2.28;2.08;;;20.00;77.60;;;;;;5093176;28;20135;-57
2021/09/27 03:47:40;;;;;;;2.35;2.15;;;20.00;77.50;;;;;;5093935;28;20067;-57
2021/09/27 03:50:20;;;;;;;2.67;2.05;;;20.10;77.60;;;;;;5093310;28;20110;-57
2021/09/27 03:52:52;;;;;;;2.63;2.42;;;20.00;77.50;;;;;;5093795;28;20048;-57
2021/09/27 03:55:41;;;;;;;2.25;2.05;;;20.10;77.50;;;;;;5094029;28;20130;-57
2021/09/27 03:58:19;;;;;;;2.65;2.40;;;20.10;77.70;;;;;;5093676;28;20066;-59
2021/09/27 04:01:12;;;;;;;2.38;2.17;;;20.10;77.60;;;;;;5093759;28;20055;-59
2021/09/27 04:03:53;;;;;;;2.47;2.15;;;20.10;77.60;;;;;;5093571;28;20047;-57
2021/09/27 04:06:49;;;;;;;2.53;2.33;;;20.00;77.50;;;;;;5093057;28;20042;-58
2021/09/27 04:09:15;;;;;;;2.45;2.25;;;20.00;77.50;;;;;;5073263;28;20045;-58
2021/09/27 04:12:08;;;;;;;2.40;2.20;;;20.00;77.50;;;;;;5088856;28;20055;-56
2021/09/27 04:15:16;;;;;;;2.45;2.25;;;20.10;77.60;;;;;;5088951;28;20046;-57
2021/09/27 04:17:59;;;;;;;2.55;2.35;;;20.00;77.60;;;;;;5093221;28;20071;-57
2021/09/27 04:20:44;;;;;;;2.67;2.47;;;20.00;77.50;;;;;;5073945;28;20044;-55
2021/09/27 04:23:25;;;;;;;2.30;2.10;;;20.00;77.50;;;;;;5076710;28;20111;-58
2021/09/27 04:26:00;;;;;;;1.98;1.77;;;20.00;77.50;;;;;;5093206;28;20552;-56
2021/09/27 04:29:02;;;;;;;2.53;2.10;;;20.00;77.50;;;;;;5091843;28;20115;-57
2021/09/27 04:31:47;;;;;;;2.30;2.10;;;20.00;77.60;;;;;;5093060;28;20127;-57
2021/09/27 04:34:34;;;;;;;2.47;2.28;;;20.00;77.50;;;;;;5092993;28;20042;-57
2021/09/27 04:37:01;;;;;;;2.35;2.13;;;20.00;77.60;;;;;;5092705;28;20044;-57
2021/09/27 04:39:29;;;;;;;2.45;2.25;;;20.00;77.50;;;;;;5092960;28;20067;-57
2021/09/27 04:42:13;;;;;;;2.63;2.42;;;20.00;77.50;;;;;;5092552;28;20047;-57
2021/09/27 04:45:16;;;;;;;2.50;2.30;;;20.00;77.50;;;;;;5093051;28;20040;-57
2021/09/27 04:47:47;;;;;;;2.35;2.15;;;20.00;77.60;;;;;;5093286;28;20081;-57
2021/09/27 04:50:18;;;;;;;3.00;2.30;;;20.00;77.50;;;;;;5092863;28;20051;-57
2021/09/27 04:53:29;;;;;;;2.22;2.03;;;20.10;77.50;;;;;;5092106;28;20044;-57
2021/09/27 04:56:22;;;;;;;2.65;2.45;;;20.10;77.70;;;;;;5093049;28;20048;-57
2021/09/27 04:59:36;;;;;;;2.95;2.47;;;20.00;77.70;;;;;;5092734;28;20052;-58
2021/09/27 05:02:19;;;;;;;2.70;2.50;;;20.00;77.70;;;;;;5050470;28;20091;-57
2021/09/27 05:05:06;;;;;;;2.53;2.33;;;20.00;77.60;;;;;;5050000;28;20099;-57
2021/09/27 05:07:32;;;;;;;2.65;2.40;;;20.00;77.60;;;;;;5049886;28;20045;-56
2021/09/27 05:10:09;;;;;;;2.60;2.40;;;20.00;77.50;;;;;;5049702;28;20618;-59
2021/09/27 05:12:40;;;;;;;2.60;2.40;;;20.00;77.50;;;;;;5049724;28;20080;-57
2021/09/27 05:15:24;;;;;;;2.45;2.25;;;20.00;77.50;;;;;;5049465;28;20044;-57
2021/09/27 05:18:13;;;;;;;2.47;2.28;;;20.00;77.60;;;;;;5049870;28;20106;-57
2021/09/27 05:20:47;;;;;;;2.47;2.28;;;20.00;77.60;;;;;;4971114;28;20582;-57
2021/09/27 05:23:38;;;;;;;2.60;2.35;;;20.00;77.50;;;;;;4954348;28;20054;-57
2021/09/27 05:26:21;;;;;;;2.63;2.10;;;20.00;77.50;;;;;;4950599;29;20551;-58
2021/09/27 05:29:02;;;;;;;2.47;2.15;;;20.00;77.50;;;;;;4959005;28;20077;-56
2021/09/27 05:31:37;;;;;;;2.63;2.42;;;20.00;77.50;;;;;;4958929;28;20105;-57
2021/09/27 05:34:19;;;;;;;2.50;2.20;;;20.00;77.50;;;;;;4974992;28;20130;-57
2021/09/27 05:37:06;;;;;;;2.60;2.30;;;20.00;77.50;;;;;;4984055;28;20062;-58
2021/09/27 05:39:43;;;;;;;2.55;2.25;;;20.00;77.60;;;;;;4998072;28;20453;-62
2021/09/27 05:42:34;;;;;;;2.40;2.10;;;20.00;77.50;;;;;;5014312;28;20165;-61
2021/09/27 05:45:06;;;;;;;2.70;2.50;;;20.00;77.50;;;;;;5013572;28;20058;-56
2021/09/27 05:47:46;;;;;;;2.60;2.40;;;20.00;77.50;;;;;;5013436;28;20046;-57
2021/09/27 05:50:31;;;;;;;2.53;2.33;;;20.00;77.50;;;;;;5013779;28;20442;-60
2021/09/27 05:53:22;;;;;;;2.50;2.30;;;20.00;77.50;;;;;;4997829;28;20128;-57
2021/09/27 05:56:15;;;;;;;2.70;2.28;;;20.00;77.50;;;;;;4995711;28;20133;-54
2021/09/27 05:59:04;;;;;;;2.15;1.92;;;20.00;77.60;;;;;;5089675;28;20099;-61
2021/09/27 06:01:48;;;;;;;2.35;2.15;;;20.00;77.60;;;;;;5053163;28;20148;-56
2021/09/27 06:04:25;;;;;;;2.45;2.25;;;20.00;77.50;;;;;;5053404;28;20108;-57
2021/09/27 06:07:17;;;;;;;2.53;2.30;;;20.00;77.50;;;;;;5053328;28;20056;-59
2021/09/27 06:09:52;;;;;;;2.58;2.33;;;20.00;77.60;;;;;;5053488;28;20497;-59
2021/09/27 06:12:53;;;;;;;2.80;2.55;;;20.00;77.60;;;;;;5053103;28;20084;-57
2021/09/27 06:15:25;;;;;;;2.42;2.22;;;20.00;77.60;;;;;;5052604;28;20073;-58
2021/09/27 06:18:12;;;;;;;2.50;2.30;;;20.00;77.50;;;;;;5052824;28;20370;-59
2021/09/27 06:20:55;;;;;;;2.70;2.30;;;20.00;77.60;;;;;;5048514;28;20060;-58
2021/09/27 06:23:27;;;;;;;2.47;2.28;;;20.00;77.50;;;;;;5052603;28;20049;-58
2021/09/27 06:26:14;;;;;;;2.65;2.42;;;20.00;77.50;;;;;;5052931;28;20461;-58
2021/09/27 06:29:10;;;;;;;2.38;2.17;;;20.00;77.60;;;;;;5035783;28;20049;-59
2021/09/27 06:31:58;;;;;;;2.60;2.40;;;20.00;77.60;;;;;;5052557;28;20090;-63
2021/09/27 06:34:30;;;;;;;2.63;2.42;;;20.00;77.60;;;;;;5036661;28;20048;-65
2021/09/27 06:36:58;;;;;;;2.75;2.53;;;20.00;77.50;;;;;;5052856;28;20037;-64
2021/09/27 06:39:28;;;;;;;2.60;2.20;;;20.00;77.50;;;;;;5088873;28;20516;-61
2021/09/27 06:41:55;;;;;;;2.75;2.42;;;20.00;77.50;;;;;;5092727;28;20139;-63
2021/09/27 06:44:22;;;;;;;2.58;2.38;;;20.00;77.50;;;;;;5094558;28;20154;-65
2021/09/27 06:46:48;;;;;;;3.20;2.70;;;20.00;77.50;;;;;;5094348;28;20047;-65
2021/09/27 06:49:14;;;;;;;3.28;2.75;;;20.00;77.50;;;;;;5095322;28;20038;-65
2021/09/27 06:51:44;;;;;;;2.55;2.35;;;20.00;77.50;;;;;;5095474;28;20191;-65
2021/09/27 06:54:15;;;;;;;2.70;2.40;;;20.00;77.40;;;;;;5095013;28;20046;-65
2021/09/27 06:56:41;;;;;;;2.47;2.28;;;20.00;77.40;;;;;;5095107;28;20056;-65
2021/09/27 06:59:06;;;;;;;3.05;2.75;;;20.00;77.40;;;;;;5094216;28;20051;-56
2021/09/27 07:01:33;;;;;;;2.60;2.40;;;20.00;77.40;;;;;;5094987;28;20472;-65
2021/09/27 07:03:59;;;;;;;3.03;2.63;;;20.00;77.40;;;;;;5094959;28;20036;-64
2021/09/27 07:06:24;;;;;;;2.72;2.50;;;20.00;77.40;;;;;;5095197;28;20036;-61
2021/09/27 07:08:50;;;;;;;2.80;2.60;;;20.00;77.40;;;;;;5089607;28;21657;-59
2021/09/27 07:11:16;;;;;;;2.90;2.70;;;20.00;77.40;;;;;;5092340;28;20066;-63
2021/09/27 07:13:43;;;;;;;2.63;2.42;;;20.00;77.40;;;;;;5093757;28;20040;-62
2021/09/27 07:16:09;;;;;;;2.65;2.33;;;20.00;77.40;;;;;;5093530;28;20041;-61
2021/09/27 07:18:35;;;;;;;2.95;2.40;;;20.00;77.40;;;;;;5093656;28;20028;-63
2021/09/27 07:21:01;;;;;;;2.83;2.35;;;20.00;77.40;;;;;;5093740;28;20182;-56
2021/09/27 07:23:28;;;;;;;2.75;2.50;;;20.00;77.50;;;;;;5093497;28;20040;-58
2021/09/27 07:25:53;;;;;;;2.95;2.60;;;20.00;77.40;;;;;;5093632;28;20059;-57
2021/09/27 07:28:22;;;;;;;2.47;2.28;;;20.00;77.40;;;;;;5094296;28;20036;-56
2021/09/27 07:30:50;;;;;;;2.78;2.40;;;20.00;78.10;;;;;;5093683;28;20036;-63
2021/09/27 07:33:17;;;;;;;2.88;2.58;;;20.00;77.40;;;;;;5093507;28;20043;-63
2021/09/27 07:35:44;;;;;;;3.00;2.70;;;20.00;77.40;;;;;;5093925;28;20100;-65
2021/09/27 07:38:09;;;;;;;3.00;2.70;;;20.00;77.50;;;;;;5093057;28;20121;-66
2021/09/27 07:40:38;;;;;;;2.80;2.50;;;20.00;77.40;;;;;;5093445;28;20107;-61
2021/09/27 07:43:04;;;;;;;2.65;2.45;;;20.00;77.40;;;;;;5093244;28;20052;-64
2021/09/27 07:45:34;;;;;;;2.63;2.42;;;20.00;77.40;;;;;;5092816;28;20616;-62
2021/09/27 07:48:02;;;;;;;2.83;2.60;;;20.00;77.50;;;;;;5091879;28;20047;-64
2021/09/27 07:50:28;;;;;;;3.10;2.80;;;20.00;77.40;;;;;;5093570;28;20052;-63
2021/09/27 07:52:54;;;;;;;2.50;2.30;;;20.00;78.10;;;;;;5092138;28;20044;-62
2021/09/27 07:55:19;;;;;;;10.13;7.82;;;20.00;78.10;;;;;;5093256;28;20071;-56
2021/09/27 07:57:45;;;;;;;11.55;9.18;;;20.00;77.50;;;;;;5093069;28;20122;-57
2021/09/27 08:00:13;;;;;;;10.85;7.90;;;20.00;77.70;;;;;;5092899;28;20048;-58
2021/09/27 08:02:40;;;;;;;7.35;5.40;;;20.00;77.70;;;;;;5125100;27;20060;-56
2021/09/27 08:05:06;;;;;;;7.10;6.40;;;20.00;77.80;;;;;;5092560;28;20028;-57
2021/09/27 08:07:32;;;;;;;6.45;5.85;;;19.90;77.70;;;;;;5092941;28;20048;-58
2021/09/27 08:09:57;;;;;;;5.93;5.32;;;20.00;77.80;;;;;;5093349;28;20119;-58
2021/09/27 08:12:23;;;;;;;6.93;6.15;;;19.90;77.70;;;;;;5093528;28;20056;-58
2021/09/27 08:14:49;;;;;;;6.03;5.40;;;20.00;77.70;;;;;;5093479;28;20432;-58
2021/09/27 08:17:14;;;;;;;7.82;6.50;;;19.90;77.60;;;;;;5093506;28;20044;-57
2021/09/27 08:19:43;;;;;;;6.78;6.05;;;19.90;77.60;;;;;;5092999;28;20036;-58
2021/09/27 08:22:09;;;;;;;15.55;12.32;;;20.00;77.70;;;;;;5092805;28;20067;-72
2021/09/27 08:24:35;;;;;;;13.18;9.70;;;19.90;77.60;;;;;;5092744;28;20514;-66
2021/09/27 08:27:00;;;;;;;10.60;8.27;;;20.00;77.80;;;;;;5093335;28;20048;-72
2021/09/27 08:29:26;;;;;;;11.07;7.68;;;19.90;77.90;;;;;;5093372;28;20346;-68
2021/09/27 08:31:52;;;;;;;9.32;7.88;;;19.90;77.90;;;;;;5080712;28;20048;-73
2021/09/27 08:34:18;;;;;;;9.70;7.85;;;19.90;77.90;;;;;;5088207;28;20036;-72
2021/09/27 08:36:44;;;;;;;9.25;7.32;;;19.90;77.90;;;;;;5092452;28;20055;-72
2021/09/27 08:39:10;;;;;;;11.18;8.00;;;19.90;77.90;;;;;;5090700;28;20143;-70
2021/09/27 08:41:48;;;;;;;8.93;7.25;;;19.90;77.80;;;;;;5090842;28;20043;-69
2021/09/27 08:44:32;;;;;;;11.48;8.02;;;20.00;77.80;;;;;;5086335;28;20036;-69
2021/09/27 08:47:07;;;;;;;10.18;7.57;;;19.90;77.90;;;;;;5088526;28;20051;-68
2021/09/27 08:49:53;;;;;;;9.80;8.40;;;19.90;77.80;;;;;;5091819;28;20094;-72
2021/09/27 08:52:21;;;;;;;;;;;19.90;77.70;;;;;;5092500;28;20044;-69
2021/09/27 08:54:48;;;;;;;9.30;7.28;;;19.90;78.20;;;;;;5090806;28;19969;-72
2021/09/27 08:57:39;;;;;;;9.25;7.50;;;19.90;77.90;;;;;;5092023;28;20400;-72
2021/09/27 09:00:22;;;;;;;8.57;7.68;;;19.90;77.90;;;;;;5091314;28;20043;-49
2021/09/27 09:03:03;;;;;;;10.02;7.90;;;19.90;77.80;;;;;;5089461;28;20404;-45
2021/09/27 09:05:43;;;;;;;9.50;7.60;;;19.90;77.80;;;;;;5090009;28;20040;-48
2021/09/27 09:08:18;;;;;;;8.52;7.57;;;19.90;77.80;;;;;;5090039;28;20055;-48
2021/09/27 09:11:10;;;;;;;8.80;7.53;;;19.90;77.80;;;;;;5091818;28;20474;-47
2021/09/27 09:13:43;;;;;;;9.10;7.43;;;19.90;77.80;;;;;;5091889;28;20044;-50
2021/09/27 09:16:13;;;;;;;10.30;7.13;;;19.90;77.80;;;;;;5089254;28;20485;-50
2021/09/27 09:18:43;;;;;;;10.43;8.02;;;19.90;77.70;;;;;;5082356;28;20511;-49
2021/09/27 09:21:24;;;;;;;9.82;6.97;;;19.90;77.70;;;;;;5090824;28;20064;-46
2021/09/27 09:23:56;;;;;;;9.63;7.63;;;19.90;77.70;;;;;;5091137;28;20046;-69
2021/09/27 09:26:27;;;;;;;8.80;6.80;;;19.90;77.70;;;;;;5091384;28;20092;-50
2021/09/27 09:28:55;;;;;;;8.50;7.07;;;19.90;77.70;;;;;;5090894;28;20109;-48
2021/09/27 09:31:24;;;;;;;7.78;6.53;;;19.90;77.70;;;;;;5091364;28;20040;-51
2021/09/27 09:34:00;;;;;;;8.20;6.75;;;19.90;78.00;;;;;;5091208;28;20051;-47
2021/09/27 09:36:31;;;;;;;7.53;6.75;;;19.90;77.70;;;;;;5090631;28;20506;-49
2021/09/27 09:38:58;;;;;;;8.23;6.93;;;19.90;77.70;;;;;;5087491;28;20441;-48
2021/09/27 09:41:46;;;;;;;7.57;6.35;;;19.90;77.70;;;;;;5088720;28;20096;-46
2021/09/27 09:44:39;;;;;;;7.90;6.85;;;19.90;77.70;;;;;;5087855;28;20044;-48
2021/09/27 09:47:20;;;;;;;7.43;6.15;;;19.90;77.80;;;;;;5087601;28;20093;-54
2021/09/27 09:50:07;;;;;;;8.40;6.20;;;19.90;77.70;;;;;;5088241;28;20044;-64
2021/09/27 09:52:42;;;;;;;6.55;5.82;;;19.90;77.80;;;;;;5086962;28;20040;-50
2021/09/27 09:55:29;;;;;;;7.38;6.05;;;19.90;77.70;;;;;;5087586;28;20044;-59
2021/09/27 09:57:55;;;;;;;8.38;6.60;;;19.90;77.70;;;;;;5076813;28;20113;-51
2021/09/27 10:00:34;;;;;;;6.60;5.80;;;19.90;77.70;;;;;;5087910;28;20048;-51
2021/09/27 10:03:01;;;;;;;6.38;5.70;;;19.90;77.70;;;;;;5087483;28;20127;-64
2021/09/27 10:05:34;;;;;;;6.80;5.70;;;19.90;77.70;;;;;;5087937;28;20052;-68
2021/09/27 10:08:04;;;;;;;6.72;5.57;;;19.90;77.70;;;;;;5086799;28;20150;-62
2021/09/27 10:10:38;;;;;;;7.43;5.95;;;19.90;77.70;;;;;;5087366;28;20052;-58
2021/09/27 10:13:32;;;;;;;7.10;5.90;;;20.00;77.70;;;;;;5086558;28;20531;-72
2021/09/27 10:15:58;;;;;;;7.57;5.80;;;19.90;77.70;;;;;;5045676;28;20057;-70
2021/09/27 10:18:36;;;;;;;6.18;5.57;;;19.90;77.70;;;;;;5047716;28;20126;-68
2021/09/27 10:21:21;;;;;;;6.88;5.53;;;19.90;77.70;;;;;;5047938;28;20136;-63
2021/09/27 10:23:50;;;;;;;5.78;5.18;;;19.90;77.80;;;;;;5048551;28;20111;-58
2021/09/27 10:26:45;;;;;;;6.50;5.47;;;19.90;77.70;;;;;;5048748;28;20143;-55
2021/09/27 10:29:24;;;;;;;6.00;5.40;;;19.90;77.70;;;;;;5042469;28;20132;-56
2021/09/27 10:32:23;;;;;;;6.50;4.97;;;19.90;77.70;;;;;;5052153;28;20814;-50
2021/09/27 10:34:49;;;;;;;6.63;5.75;;;20.00;78.00;;;;;;4992669;28;20055;-53
2021/09/27 10:37:22;;;;;;;5.20;4.70;;;19.90;77.70;;;;;;4992873;28;21596;-48
2021/09/27 10:39:52;;;;;;;6.25;5.30;;;19.90;77.70;;;;;;4973567;28;20153;-51
2021/09/27 10:42:25;;;;;;;6.20;5.60;;;19.90;77.70;;;;;;4990542;28;20150;-49
2021/09/27 10:44:54;;;;;;;5.43;4.93;;;19.90;77.70;;;;;;4992103;28;20057;-51
2021/09/27 10:47:25;;;;;;;5.20;4.70;;;20.00;77.80;;;;;;4989357;28;20124;-56
2021/09/27 10:50:15;;;;;;;5.07;4.57;;;19.90;77.70;;;;;;4973282;28;20118;-49
2021/09/27 10:52:47;;;;;;;6.30;4.90;;;20.00;77.80;;;;;;5012748;28;20056;-49
2021/09/27 10:55:16;;;;;;;6.88;5.32;;;19.90;77.70;;;;;;5051498;28;20131;-47
2021/09/27 10:58:02;;;;;;;5.90;4.55;;;20.00;77.70;;;;;;5050935;28;20059;-46
2021/09/27 11:00:47;;;;;;;5.40;4.90;;;20.00;77.80;;;;;;5031332;28;20057;-50
2021/09/27 11:03:21;;;;;;;5.55;5.05;;;19.90;77.70;;;;;;5031515;28;20148;-47
2021/09/27 11:05:55;;;;;;;6.68;5.45;;;20.00;77.80;;;;;;5031797;28;20041;-48
2021/09/27 11:08:45;;;;;;;5.63;4.80;;;20.00;77.80;;;;;;5041397;28;20409;-49
2021/09/27 11:11:17;;;;;;;5.68;4.63;;;20.00;77.80;;;;;;5066160;28;20055;-50
2021/09/27 11:13:44;;;;;;;5.47;4.63;;;19.90;77.70;;;;;;5072965;28;20052;-61
2021/09/27 11:16:17;;;;;;;5.20;4.55;;;20.00;77.80;;;;;;5073887;28;20036;-50
2021/09/27 11:19:27;;;;;;;5.10;4.47;;;20.00;77.80;;;;;;5073696;28;20044;-49
2021/09/27 11:21:53;;;;;;;5.13;4.22;;;20.00;77.90;;;;;;5080081;28;20052;-48
2021/09/27 11:24:19;;;;;;;4.63;4.20;;;20.00;77.80;;;;;;5093443;28;20499;-47
2021/09/27 11:26:46;;;;;;;5.03;4.45;;;20.00;77.80;;;;;;5092369;28;20083;-51
2021/09/27 11:29:30;;;;;;;4.68;4.28;;;20.00;77.80;;;;;;5091393;28;20420;-47
2021/09/27 11:32:28;;;;;;;5.20;4.70;;;20.00;77.90;;;;;;5093376;28;20501;-48
2021/09/27 11:35:03;;;;;;;4.53;4.13;;;20.00;77.80;;;;;;5093699;28;20052;-51
2021/09/27 11:37:34;;;;;;;5.28;4.47;;;20.00;77.80;;;;;;5092808;28;20043;-49
2021/09/27 11:40:06;;;;;;;4.85;4.28;;;20.00;77.80;;;;;;5093582;28;20101;-51
2021/09/27 11:42:35;;;;;;;5.07;4.43;;;20.00;77.80;;;;;;5092263;28;20044;-49
2021/09/27 11:45:12;;;;;;;4.82;4.32;;;20.00;77.80;;;;;;5092595;28;20071;-50
2021/09/27 11:47:40;;;;;;;5.35;4.85;;;20.00;77.80;;;;;;5093520;28;20087;-52
2021/09/27 11:50:15;;;;;;;4.70;4.18;;;20.00;77.80;;;;;;5088007;28;20075;-49
2021/09/27 11:52:54;;;;;;;5.28;4.78;;;20.00;77.80;;;;;;5081665;28;20080;-61
2021/09/27 11:55:28;;;;;;;4.85;3.97;;;20.00;77.80;;;;;;5083233;28;20044;-66
2021/09/27 11:58:10;;;;;;;4.43;4.03;;;20.00;77.80;;;;;;5092970;28;20040;-62
2021/09/27 12:00:49;;;;;;;4.78;4.13;;;20.00;77.80;;;;;;5092667;28;20050;-64
2021/09/27 12:03:18;;;;;;;4.80;4.32;;;20.00;77.80;;;;;;5092730;28;20396;-56
2021/09/27 12:05:52;;;;;;;6.32;4.63;;;20.00;77.80;;;;;;5092962;28;20048;-61
2021/09/27 12:08:25;;;;;;;4.70;4.10;;;20.00;77.70;;;;;;5092709;28;20051;-59
2021/09/27 12:11:14;;;;;;;5.68;4.38;;;20.00;77.80;;;;;;5092927;28;20174;-64
2021/09/27 12:13:44;;;;;;;5.63;4.30;;;20.00;77.80;;;;;;5091662;28;20052;-59
2021/09/27 12:16:39;;;;;;;4.50;4.10;;;20.00;77.90;;;;;;5092764;28;20048;-62
2021/09/27 12:19:14;;;;;;;4.53;4.13;;;20.00;78.00;;;;;;5050156;28;20060;-62
2021/09/27 12:21:51;;;;;;;4.60;4.15;;;20.00;77.90;;;;;;5049566;28;20501;-63
2021/09/27 12:24:21;;;;;;;4.50;4.07;;;19.90;77.90;;;;;;5049848;28;20491;-67
2021/09/27 12:26:51;;;;;;;4.97;4.28;;;20.00;78.60;;;;;;5049526;28;20044;-64
2021/09/27 12:29:23;;;;;;;9.13;6.50;;;20.00;78.00;;;;;;5049346;28;20140;-57
2021/09/27 12:31:58;;;;;;;17.60;7.18;;;20.10;78.70;;;;;;5049633;28;20041;-55
2021/09/27 12:34:32;;;;;;;11.93;7.03;;;20.10;79.00;;;;;;5049514;28;20531;-45
2021/09/27 12:36:58;;;;;;;13.15;6.63;;;20.20;79.10;;;;;;5049632;28;20156;-46
2021/09/27 12:39:28;;;;;;;14.18;7.15;;;20.20;79.00;;;;;;5049940;28;20044;-46
2021/09/27 12:41:56;;;;;;;11.90;6.95;;;20.20;79.00;;;;;;5050566;28;20045;-46
2021/09/27 12:44:34;;;;;;;12.18;6.50;;;20.20;78.90;;;;;;5050539;28;20072;-46
2021/09/27 12:47:05;;;;;;;11.00;6.70;;;20.20;78.70;;;;;;5050308;28;20048;-47
2021/09/27 12:49:54;;;;;;;8.50;6.38;;;20.20;78.70;;;;;;5050335;28;20061;-47
2021/09/27 12:52:49;;;;;;;10.43;6.28;;;20.20;78.70;;;;;;5050451;28;20134;-47
2021/09/27 12:55:29;;;;;;;8.32;5.85;;;20.20;78.70;;;;;;5058024;28;20470;-45
2021/09/27 12:58:00;;;;;;;9.18;5.75;;;20.20;78.60;;;;;;5092901;28;20044;-47
2021/09/27 13:00:39;;;;;;;7.57;5.65;;;20.20;78.50;;;;;;5092831;28;20127;-49
2021/09/27 13:03:08;;;;;;;6.05;5.38;;;20.20;78.40;;;;;;5091849;28;20517;-47
2021/09/27 13:06:02;;;;;;;7.18;5.80;;;20.20;78.40;;;;;;5091029;28;20484;-46
2021/09/27 13:08:30;;;;;;;8.70;6.05;;;20.20;78.40;;;;;;5030150;28;20080;-48
2021/09/27 13:10:58;;;;;;;9.88;5.75;;;20.20;78.40;;;;;;5013651;28;20063;-47
2021/09/27 13:13:32;;;;;;;7.10;5.28;;;20.10;78.30;;;;;;5030055;28;20065;-46
2021/09/27 13:16:02;;;;;;;6.97;5.35;;;20.20;78.30;;;;;;5030253;28;20525;-49
2021/09/27 13:18:34;;;;;;;6.50;5.32;;;20.20;78.30;;;;;;5048273;28;20111;-47
2021/09/27 13:21:12;;;;;;;8.15;5.80;;;20.20;78.30;;;;;;5049927;28;20119;-49
2021/09/27 13:23:43;;;;;;;5.93;5.18;;;20.20;78.90;;;;;;5050099;28;20051;-55
2021/09/27 13:26:20;;;;;;;5.18;4.57;;;20.20;78.20;;;;;;5049952;28;20125;-55
2021/09/27 13:28:52;;;;;;;5.85;4.97;;;20.20;78.20;;;;;;5049618;28;20552;-56
2021/09/27 13:31:24;;;;;;;6.60;5.00;;;20.20;78.20;;;;;;5049933;28;20536;-57
2021/09/27 13:33:53;;;;;;;6.03;4.78;;;20.20;78.20;;;;;;5049938;28;20045;-55